KSVC 
Grant County Airport
Silver City, New Mexico, United States 
ICAOIATAStatusUseage
KSVCSVCOperationalPublic
LatitudeLongitude
32° 38' 11" N108° 9' 22" W
32.636547-108.156385
Local Time (DST-6)UTC (GMT-7)
04-25-2014 01:38 am04-25-2014 07:38
Sunrise-SunsetLocalUTC
Begin Civil Twilight06:03 am12:03
Sunrise06:29 am12:29
Sunset07:51 pm01:51
End Civil Twilight08:17 pm02:17

Current Weather

METARObservedFlight Conditions

KSVC 250715Z AUTO 33009KT 10SM CLR 08/M10 A3007

Fri, Apr 25, 2014 @ 07:15 UTC(Z)

(23 Minutes ago)

VFR

(Visual Flight Rules)

WindVisibilityCloudsConditions
330° at 9 knots (10 mph)
10 statute miles
  • Clear skies
  • No significant weather
TemperaturesReadingsPrecipitation
Current Temp8°C (46°F)
Dewpoint-10°C (14°F)
Humidity27%
Altimeter30.07"Hg
Sea Level Pressure1018mb
Field Elevation5443.01'
None Recorded

Additional weather within a 50nm radius of KSVC

Location METAR
KDMN

31.5nm S (135°)

45 minutes ago
KLSB

32.6nm S (236°)

23 minutes ago
VFR VFR    MVFR MVFR    IFR IFR    LIFR LIFR    Unknown Unknown

Previous 24 hour Weather Graphs

  Loading...

CheckWX.com is intended as a tool to help pilots better visualize weather data.   It is not intended as a substitute for an official weather briefing obtained from a Flight Service Station.
CheckWX.com does not meet the FAA requirements for an official pre-flight weather briefing.   Therefore, it's important that pilots still call and obtain an official FSS pre-flight weather briefing.